createdAt,value
2022-09-01T00:00:30.041Z,101091.34
2022-09-01T00:02:59.810Z,101095.44
2022-09-01T00:05:28.050Z,101100.16
2022-09-01T00:07:55.924Z,101092.38
2022-09-01T00:10:24.100Z,101092.38
2022-09-01T00:12:52.693Z,101094.09
2022-09-01T00:15:20.693Z,101100.56
2022-09-01T00:17:49.058Z,101105.09
2022-09-01T00:20:20.752Z,101097.16
2022-09-01T00:22:49.893Z,101093.63
2022-09-01T00:25:20.327Z,101096.31
2022-09-01T00:27:49.675Z,101094.56
2022-09-01T00:30:18.480Z,101099.19
2022-09-01T00:32:46.900Z,101097.63
2022-09-01T00:35:15.333Z,101094.06
2022-09-01T00:37:45.319Z,101088.84
2022-09-01T00:40:15.129Z,101087.84
2022-09-01T00:42:44.538Z,101091.66
2022-09-01T00:45:13.355Z,101086.50
2022-09-01T00:47:41.633Z,101095.56
2022-09-01T00:50:11.510Z,101096.78
2022-09-01T00:52:44.056Z,101097.78
2022-09-01T00:55:17.316Z,101088.88
2022-09-01T00:57:46.415Z,101091.41
2022-09-01T01:00:18.542Z,101083.38
2022-09-01T01:02:47.110Z,101093.12
2022-09-01T01:05:16.059Z,101091.16
2022-09-01T01:07:48.080Z,101096.31
2022-09-01T01:10:23.881Z,101089.94
2022-09-01T01:12:52.603Z,101087.13
2022-09-01T01:15:21.406Z,101096.03
2022-09-01T01:17:49.378Z,101087.97
2022-09-01T01:20:37.935Z,101093.34
2022-09-01T01:23:15.936Z,101090.53
2022-09-01T01:25:49.826Z,101094.94
2022-09-01T01:28:22.075Z,101095.06
2022-09-01T01:30:53.593Z,101095.06
2022-09-01T01:33:24.092Z,101086.03
2022-09-01T01:35:56.246Z,101088.97
2022-09-01T01:38:27.547Z,101090.19
2022-09-01T01:40:57.671Z,101096.66
2022-09-01T01:43:27.548Z,101089.00
2022-09-01T01:45:58.975Z,101092.88
2022-09-01T01:48:28.211Z,101097.06
2022-09-01T01:51:00.859Z,101092.19
2022-09-01T01:53:29.954Z,101090.09
2022-09-01T01:56:00.911Z,101093.28
2022-09-01T01:58:30.750Z,101088.53
2022-09-01T02:00:59.141Z,101085.84
2022-09-01T02:03:30.772Z,101086.94
2022-09-01T02:06:04.707Z,101093.91
2022-09-01T02:08:34.154Z,101090.94
2022-09-01T02:11:05.910Z,101088.59
2022-09-01T02:13:35.155Z,101088.22
2022-09-01T02:16:07.576Z,101087.59
2022-09-01T02:18:38.041Z,101086.12
2022-09-01T02:21:15.110Z,101088.94
2022-09-01T02:23:44.382Z,101081.03
2022-09-01T02:26:16.978Z,101082.81
2022-09-01T02:28:55.577Z,101075.88
2022-09-01T02:31:28.831Z,101085.75
2022-09-01T02:33:57.100Z,101080.63
2022-09-01T02:36:25.857Z,101083.78
2022-09-01T02:38:56.463Z,101081.34
2022-09-01T02:41:29.095Z,101080.72
2022-09-01T02:44:02.229Z,101074.50
2022-09-01T02:46:30.801Z,101078.03
2022-09-01T02:49:00.798Z,101075.38
2022-09-01T02:51:29.204Z,101079.03
2022-09-01T02:53:57.588Z,101074.50
2022-09-01T02:56:27.380Z,101069.16
2022-09-01T02:58:56.214Z,101068.91
2022-09-01T03:01:29.379Z,101068.66
2022-09-01T03:04:01.973Z,101064.03
2022-09-01T03:06:34.120Z,101070.75
2022-09-01T03:09:03.927Z,101070.50
2022-09-01T03:11:35.040Z,101075.53
2022-09-01T03:14:03.424Z,101077.25
2022-09-01T03:16:31.588Z,101078.81
2022-09-01T03:19:03.197Z,101073.47
2022-09-01T03:21:32.443Z,101074.31
2022-09-01T03:24:02.086Z,101080.28
2022-09-01T03:26:31.352Z,101081.03
2022-09-01T03:29:01.880Z,101081.75
2022-09-01T03:31:31.019Z,101082.88
2022-09-01T03:34:00.750Z,101082.88
2022-09-01T03:36:33.319Z,101080.66
2022-09-01T03:39:02.258Z,101073.84
2022-09-01T03:41:31.378Z,101072.22
2022-09-01T03:44:01.324Z,101077.81
2022-09-01T03:46:36.236Z,101082.34
2022-09-01T03:49:07.477Z,101081.47
2022-09-01T03:51:39.185Z,101078.94
2022-09-01T03:54:07.883Z,101079.78
2022-09-01T03:56:36.307Z,101081.59
2022-09-01T03:59:05.615Z,101079.12
2022-09-01T04:01:43.849Z,101072.31
2022-09-01T04:04:15.034Z,101080.09
2022-09-01T04:06:44.610Z,101073.50
2022-09-01T04:09:14.527Z,101072.75
2022-09-01T04:11:46.337Z,101073.97
2022-09-01T04:14:16.686Z,101074.22
2022-09-01T04:17:03.279Z,101080.63
2022-09-01T04:19:36.787Z,101076.50
2022-09-01T04:22:07.815Z,101087.78
2022-09-01T04:24:36.572Z,101088.00
2022-09-01T04:27:07.578Z,101089.09
2022-09-01T04:29:37.171Z,101090.16
2022-09-01T04:32:12.556Z,101089.31
2022-09-01T04:34:41.674Z,101093.81
2022-09-01T04:37:13.113Z,101096.59
2022-09-01T04:39:51.279Z,101096.72
2022-09-01T04:42:23.471Z,101097.94
2022-09-01T04:44:54.623Z,101103.38
2022-09-01T04:47:35.154Z,101099.00
2022-09-01T04:50:13.820Z,101094.28
2022-09-01T04:52:44.801Z,101096.97
2022-09-01T04:55:18.394Z,101099.41
2022-09-01T04:57:49.543Z,101099.16
2022-09-01T05:00:23.389Z,101098.97
2022-09-01T05:02:53.349Z,101098.59
2022-09-01T05:05:22.728Z,101104.56
2022-09-01T05:07:53.035Z,101094.63
2022-09-01T05:10:29.890Z,101105.81
2022-09-01T05:12:58.422Z,101107.09
2022-09-01T05:15:28.110Z,101103.91
2022-09-01T05:18:02.312Z,101096.28
2022-09-01T05:20:32.017Z,101102.16
2022-09-01T05:23:00.530Z,101108.37
2022-09-01T05:25:28.478Z,101105.94
2022-09-01T05:27:56.721Z,101106.44
2022-09-01T05:30:28.569Z,101108.69
2022-09-01T05:32:58.164Z,101105.75
2022-09-01T05:35:32.640Z,101108.91
2022-09-01T05:38:02.547Z,101116.38
2022-09-01T05:40:30.901Z,101115.94
2022-09-01T05:42:59.381Z,101116.53
2022-09-01T05:45:28.025Z,101114.38
2022-09-01T05:47:58.326Z,101107.78
2022-09-01T05:50:27.903Z,101112.78
2022-09-01T05:52:56.138Z,101116.34
2022-09-01T05:55:27.676Z,101121.19
2022-09-01T05:57:57.238Z,101117.19
2022-09-01T06:00:25.345Z,101121.91
2022-09-01T06:02:58.669Z,101116.69
2022-09-01T06:05:28.205Z,101124.25
2022-09-01T06:07:57.310Z,101115.81
2022-09-01T06:10:25.519Z,101119.28
2022-09-01T06:12:54.401Z,101123.16
2022-09-01T06:15:24.752Z,101129.28
2022-09-01T06:17:53.534Z,101125.81
2022-09-01T06:20:22.984Z,101127.91
2022-09-01T06:22:53.376Z,101125.56
2022-09-01T06:25:22.054Z,101130.09
2022-09-01T06:27:52.403Z,101128.13
2022-09-01T06:30:24.482Z,101119.09
2022-09-01T06:32:54.816Z,101122.91
2022-09-01T06:35:29.898Z,101126.81
2022-09-01T06:37:59.985Z,101124.31
2022-09-01T06:40:30.330Z,101128.56
2022-09-01T06:43:00.497Z,101127.53
2022-09-01T06:45:29.387Z,101136.69
2022-09-01T06:47:59.370Z,101133.94
2022-09-01T06:53:45.027Z,101141.13
2022-09-01T06:56:13.617Z,101138.44
2022-09-01T06:58:47.262Z,101143.88
2022-09-01T07:01:19.561Z,101136.91
2022-09-01T07:03:51.908Z,101139.50
2022-09-01T07:09:22.262Z,101142.34
2022-09-01T07:12:29.422Z,101143.22
2022-09-01T07:17:50.233Z,101142.84
2022-09-01T07:20:24.607Z,101140.75
2022-09-01T07:23:09.971Z,101135.37
2022-09-01T07:26:02.243Z,101135.53
2022-09-01T07:28:39.919Z,101139.97
2022-09-01T07:39:55.401Z,101145.41
2022-09-01T07:45:28.769Z,101135.25
2022-09-01T07:48:00.027Z,101143.47
2022-09-01T07:53:19.891Z,101137.03
2022-09-01T07:55:49.954Z,101141.03
2022-09-01T07:58:22.111Z,101141.09
2022-09-01T08:00:53.340Z,101142.88
2022-09-01T08:03:25.084Z,101145.59
2022-09-01T08:05:57.590Z,101148.47
2022-09-01T08:08:29.354Z,101149.53
2022-09-01T08:11:05.297Z,101152.34
2022-09-01T08:13:41.744Z,101149.03
2022-09-01T08:16:19.526Z,101146.44
2022-09-01T08:18:49.979Z,101151.41
2022-09-01T08:21:23.538Z,101147.91
2022-09-01T08:23:56.753Z,101145.91
2022-09-01T08:26:27.154Z,101138.47
2022-09-01T08:28:57.104Z,101147.38
2022-09-01T08:31:30.623Z,101143.66
2022-09-01T08:34:00.194Z,101143.88
2022-09-01T08:36:29.217Z,101142.44
2022-09-01T08:38:57.179Z,101140.53
2022-09-01T08:41:38.699Z,101142.97
2022-09-01T08:44:18.159Z,101138.25
2022-09-01T08:46:47.130Z,101140.09
2022-09-01T08:49:28.141Z,101143.22
2022-09-01T08:52:07.204Z,101140.47
2022-09-01T08:54:43.445Z,101143.00
2022-09-01T08:57:18.093Z,101146.25
2022-09-01T08:59:53.622Z,101141.63
2022-09-01T09:02:38.604Z,101145.53
2022-09-01T09:05:16.764Z,101148.91
2022-09-01T09:08:07.124Z,101150.06
2022-09-01T09:10:43.563Z,101143.16
2022-09-01T09:13:22.583Z,101140.38
2022-09-01T09:16:14.041Z,101143.81
2022-09-01T09:18:56.640Z,101150.00
2022-09-01T09:21:29.899Z,101133.81
2022-09-01T09:24:05.088Z,101135.06
2022-09-01T09:26:48.814Z,101143.59
2022-09-01T09:29:18.145Z,101139.84
2022-09-01T09:31:50.766Z,101139.75
2022-09-01T09:34:32.572Z,101138.25
2022-09-01T09:37:03.523Z,101136.38
2022-09-01T09:39:31.667Z,101132.03
2022-09-01T09:42:09.006Z,101130.88
2022-09-01T09:44:44.168Z,101134.22
2022-09-01T09:47:46.599Z,101132.81
2022-09-01T09:50:20.673Z,101138.37
2022-09-01T09:52:49.547Z,101125.03
2022-09-01T09:55:25.523Z,101124.16
2022-09-01T09:57:58.990Z,101126.22
2022-09-01T10:00:29.825Z,101119.94
2022-09-01T10:03:04.702Z,101113.38
2022-09-01T10:05:42.803Z,101117.16
2022-09-01T10:08:14.817Z,101113.41
2022-09-01T10:10:57.346Z,101116.91
2022-09-01T10:13:29.135Z,101116.09
2022-09-01T10:16:03.695Z,101114.69
2022-09-01T10:18:39.382Z,101110.97
2022-09-01T10:21:12.976Z,101102.25
2022-09-01T10:23:43.199Z,101106.84
2022-09-01T10:26:16.911Z,101111.16
2022-09-01T10:28:54.019Z,101111.81
2022-09-01T10:31:23.046Z,101100.38
2022-09-01T10:33:52.811Z,101102.31
2022-09-01T10:36:24.610Z,101104.72
2022-09-01T10:38:58.740Z,101111.03
2022-09-01T10:41:58.115Z,101107.00
2022-09-01T10:44:34.144Z,101108.19
2022-09-01T10:47:13.193Z,101107.94
2022-09-01T10:50:10.144Z,101108.06
2022-09-01T10:53:02.626Z,101095.47
2022-09-01T10:55:41.485Z,101100.75
2022-09-01T11:01:34.949Z,101097.78
2022-09-01T11:04:02.636Z,101089.97
2022-09-01T11:07:16.862Z,101099.19
2022-09-01T11:09:49.180Z,101088.75
2022-09-01T11:12:48.272Z,101083.88
2022-09-01T11:15:39.257Z,101074.28
2022-09-01T11:18:13.331Z,101078.00
2022-09-01T11:20:48.038Z,101083.12
2022-09-01T11:23:31.167Z,101085.06
2022-09-01T11:28:51.543Z,101087.25
2022-09-01T11:31:31.835Z,101083.19
2022-09-01T11:34:14.023Z,101076.28
2022-09-01T11:36:54.129Z,101078.63
2022-09-01T11:39:32.363Z,101076.94
2022-09-01T11:42:04.958Z,101080.25
2022-09-01T11:44:38.399Z,101075.16
2022-09-01T11:47:13.660Z,101069.12
2022-09-01T11:49:50.047Z,101072.97
2022-09-01T11:52:20.531Z,101063.06
2022-09-01T11:54:49.391Z,101072.31
2022-09-01T11:57:25.528Z,101074.78
2022-09-01T11:59:54.451Z,101071.59
2022-09-01T12:02:26.008Z,101063.41
2022-09-01T12:04:56.321Z,101065.03
2022-09-01T12:07:38.202Z,101061.44
2022-09-01T12:10:16.212Z,101051.38
2022-09-01T12:12:45.715Z,101058.31
2022-09-01T12:15:21.271Z,101067.16
2022-09-01T12:17:49.568Z,101071.63
2022-09-01T12:20:31.115Z,101065.28
2022-09-01T12:23:02.341Z,101061.78
2022-09-01T12:25:33.424Z,101055.56
2022-09-01T12:28:06.006Z,101064.53
2022-09-01T12:30:39.431Z,101061.16
2022-09-01T12:33:25.990Z,101059.75
2022-09-01T12:36:23.763Z,101048.59
2022-09-01T12:38:53.283Z,101046.72
2022-09-01T12:41:35.242Z,101042.34
2022-09-01T12:44:34.576Z,101044.88
2022-09-01T12:47:06.918Z,101048.44
2022-09-01T12:49:38.296Z,101042.25
2022-09-01T12:52:26.393Z,101043.75
2022-09-01T12:55:47.455Z,101045.22
2022-09-01T12:58:06.956Z,101037.19
2022-09-01T13:00:37.941Z,101046.81
2022-09-01T13:03:18.365Z,101044.25
2022-09-01T13:05:51.062Z,101037.44
2022-09-01T13:08:22.312Z,101036.28
2022-09-01T13:10:53.284Z,101028.94
2022-09-01T13:13:24.083Z,101032.06
2022-09-01T13:15:55.326Z,101033.06
2022-09-01T13:18:26.188Z,101029.72
2022-09-01T13:20:56.156Z,101026.25
2022-09-01T13:23:25.213Z,101017.34
2022-09-01T13:25:53.768Z,101027.50
2022-09-01T13:36:51.495Z,101007.91
2022-09-01T13:39:20.857Z,101011.34
2022-09-01T13:41:49.302Z,101004.00
2022-09-01T13:44:18.419Z,101010.16
2022-09-01T13:52:24.174Z,100998.97
2022-09-01T13:54:52.350Z,100999.59
2022-09-01T13:57:20.307Z,100989.66
2022-09-01T13:59:48.486Z,100987.72
2022-09-01T14:02:18.204Z,100987.94
2022-09-01T14:04:49.847Z,100980.16
2022-09-01T14:07:20.517Z,100989.25
2022-09-01T14:09:58.709Z,100987.78
2022-09-01T14:12:30.761Z,100981.16
2022-09-01T14:17:52.440Z,100982.34
2022-09-01T14:20:22.857Z,100980.47
2022-09-01T14:22:52.034Z,100976.06
2022-09-01T14:25:21.503Z,100975.44
2022-09-01T14:27:49.880Z,100976.72
2022-09-01T14:30:20.892Z,100982.59
2022-09-01T14:32:51.402Z,100980.47
2022-09-01T14:35:21.735Z,100985.56
2022-09-01T14:37:49.934Z,100983.66
2022-09-01T14:40:18.542Z,100977.91
2022-09-01T14:42:51.630Z,100976.84
2022-09-01T14:45:22.723Z,100972.84
2022-09-01T14:47:55.309Z,100972.53
2022-09-01T14:50:24.704Z,100970.94
2022-09-01T14:52:54.967Z,100971.91
2022-09-01T14:55:24.655Z,100966.28
2022-09-01T14:57:54.446Z,100972.41
2022-09-01T15:00:25.223Z,100966.13
2022-09-01T15:02:55.849Z,100958.78
2022-09-01T15:05:24.985Z,100960.88
2022-09-01T15:07:54.260Z,100963.41
2022-09-01T15:10:26.087Z,100959.31
2022-09-01T15:12:55.849Z,100954.84
2022-09-01T15:15:24.487Z,100957.34
2022-09-01T15:17:53.029Z,100956.81
2022-09-01T15:20:41.043Z,100956.34
2022-09-01T15:23:10.083Z,100967.66
2022-09-01T15:25:38.420Z,100960.81
2022-09-01T15:28:06.731Z,100960.91
2022-09-01T15:30:35.324Z,100954.53
2022-09-01T15:33:06.651Z,100951.59
2022-09-01T15:35:36.261Z,100956.84
2022-09-01T15:38:06.698Z,100950.56
2022-09-01T15:40:35.535Z,100947.62
2022-09-01T15:43:03.488Z,100937.94
2022-09-01T15:45:31.664Z,100934.16
2022-09-01T15:47:59.884Z,100936.03
2022-09-01T15:50:28.572Z,100933.97
2022-09-01T15:53:01.497Z,100945.16
2022-09-01T15:55:31.330Z,100934.97
2022-09-01T15:58:00.363Z,100942.22
2022-09-01T16:00:28.587Z,100928.03
2022-09-01T16:03:01.511Z,100927.44
2022-09-01T16:05:29.966Z,100924.31
2022-09-01T16:08:01.314Z,100933.03
2022-09-01T16:10:33.607Z,100926.09
2022-09-01T16:13:05.282Z,100921.47
2022-09-01T16:15:35.533Z,100925.37
2022-09-01T16:18:19.744Z,100917.84
2022-09-01T16:21:00.107Z,100924.59
2022-09-01T16:23:40.703Z,100919.03
2022-09-01T16:26:09.018Z,100924.91
2022-09-01T16:28:37.883Z,100921.34
2022-09-01T16:31:11.755Z,100924.28
2022-09-01T16:33:40.251Z,100924.22
2022-09-01T16:36:27.170Z,100920.59
2022-09-01T16:39:03.068Z,100915.41
2022-09-01T16:41:43.939Z,100913.50
2022-09-01T16:44:23.513Z,100922.53
2022-09-01T16:47:05.205Z,100921.53
2022-09-01T16:49:40.004Z,100924.00
2022-09-01T16:52:17.167Z,100922.28
2022-09-01T16:55:02.761Z,100917.97
2022-09-01T16:57:41.257Z,100917.50
2022-09-01T17:00:14.115Z,100915.19
2022-09-01T17:02:50.949Z,100917.47
2022-09-01T17:05:25.288Z,100926.06
2022-09-01T17:08:06.830Z,100922.03
2022-09-01T17:10:43.927Z,100911.09
2022-09-01T17:13:20.218Z,100911.37
2022-09-01T17:15:53.702Z,100913.66
2022-09-01T17:18:30.526Z,100910.75
2022-09-01T17:21:03.557Z,100915.13
2022-09-01T17:23:38.095Z,100913.75
2022-09-01T17:26:15.578Z,100914.69
2022-09-01T17:28:48.872Z,100922.75
2022-09-01T17:31:33.919Z,100926.19
2022-09-01T17:34:11.335Z,100921.69
2022-09-01T17:36:47.125Z,100931.28
2022-09-01T17:39:27.927Z,100938.13
2022-09-01T17:42:00.524Z,100932.03
2022-09-01T17:44:37.311Z,100940.34
2022-09-01T17:47:12.654Z,100944.09
2022-09-01T17:49:51.680Z,100940.88
2022-09-01T17:52:29.377Z,100938.47
2022-09-01T17:55:04.525Z,100942.53
2022-09-01T17:57:41.908Z,100947.09
2022-09-01T18:00:22.968Z,100945.41
2022-09-01T18:03:14.841Z,100952.66
2022-09-01T18:05:45.844Z,100951.56
2022-09-01T18:08:30.067Z,100949.31
2022-09-01T18:11:02.372Z,100955.56
2022-09-01T18:13:52.981Z,100950.75
2022-09-01T18:16:24.471Z,100961.69
2022-09-01T18:18:54.498Z,100959.97
2022-09-01T18:21:26.199Z,100958.53
2022-09-01T18:23:59.153Z,100959.47
2022-09-01T18:26:32.395Z,100962.66
2022-09-01T18:29:04.759Z,100965.09
2022-09-01T18:32:08.756Z,100963.97
2022-09-01T18:35:02.578Z,100963.75
2022-09-01T18:37:37.004Z,100974.00
2022-09-01T18:40:13.459Z,100972.97
2022-09-01T18:42:49.155Z,100973.53
2022-09-01T18:45:30.678Z,100975.59
2022-09-01T18:48:10.115Z,100978.78
2022-09-01T18:50:48.159Z,100978.88
2022-09-01T18:53:28.332Z,100976.94
2022-09-01T18:56:01.762Z,100984.62
2022-09-01T18:58:45.519Z,100980.97
2022-09-01T19:01:18.137Z,100976.88
2022-09-01T19:03:53.559Z,100980.44
2022-09-01T19:06:31.579Z,100994.38
2022-09-01T19:09:08.756Z,100990.38
2022-09-01T19:11:49.008Z,100991.09
2022-09-01T19:14:25.914Z,100982.44
2022-09-01T19:17:08.523Z,100990.84
2022-09-01T19:19:43.970Z,100988.53
2022-09-01T19:22:17.583Z,100991.97
2022-09-01T19:24:51.875Z,100998.34
2022-09-01T19:27:25.257Z,100993.22
2022-09-01T19:29:57.017Z,100999.72
2022-09-01T19:32:29.609Z,100994.16
2022-09-01T19:35:04.460Z,100996.84
2022-09-01T19:37:33.151Z,101002.44
2022-09-01T19:40:01.461Z,101002.00
2022-09-01T19:42:34.806Z,100998.59
2022-09-01T19:45:10.197Z,101011.06
2022-09-01T19:47:45.582Z,101002.84
2022-09-01T19:50:19.928Z,101003.97
2022-09-01T19:52:55.563Z,101003.97
2022-09-01T19:55:31.533Z,101004.13
2022-09-01T19:58:04.228Z,101006.25
2022-09-01T20:00:50.766Z,101003.37
2022-09-01T20:03:26.548Z,101009.28
2022-09-01T20:06:01.468Z,101011.09
2022-09-01T20:08:38.115Z,101005.56
2022-09-01T20:11:11.754Z,101011.78
2022-09-01T20:14:08.302Z,101014.28
2022-09-01T20:16:41.594Z,101005.75
2022-09-01T20:19:16.285Z,101003.75
2022-09-01T20:21:46.261Z,101011.53
2022-09-01T20:24:23.675Z,101013.03
2022-09-01T20:26:59.292Z,101004.53
2022-09-01T20:29:33.878Z,101013.81
2022-09-01T20:32:04.021Z,101009.94
2022-09-01T20:34:38.433Z,101011.47
2022-09-01T20:37:11.143Z,101007.31
2022-09-01T20:40:01.808Z,101014.22
2022-09-01T20:42:40.205Z,101012.78
2022-09-01T20:45:13.520Z,101016.84
2022-09-01T20:47:42.816Z,101010.72
2022-09-01T20:50:14.790Z,101015.41
2022-09-01T20:52:54.656Z,101000.53
2022-09-01T20:55:30.061Z,101016.91
2022-09-01T20:58:05.959Z,101014.34
2022-09-01T21:00:43.205Z,101016.56
2022-09-01T21:03:19.277Z,101019.78
2022-09-01T21:05:58.360Z,101016.50
2022-09-01T21:08:44.185Z,101019.56
2022-09-01T21:11:25.371Z,101024.22
2022-09-01T21:14:14.045Z,101022.78
2022-09-01T21:16:53.555Z,101021.31
2022-09-01T21:19:32.807Z,101024.13
2022-09-01T21:22:07.489Z,101025.38
2022-09-01T21:24:36.000Z,101027.53
2022-09-01T21:27:08.042Z,101030.63
2022-09-01T21:29:53.498Z,101025.50
2022-09-01T21:32:22.827Z,101024.66
2022-09-01T21:34:51.411Z,101027.44
2022-09-01T21:37:22.366Z,101014.28
2022-09-01T21:39:53.512Z,101022.47
2022-09-01T21:42:23.150Z,101018.81
2022-09-01T21:44:54.386Z,101015.28
2022-09-01T21:47:22.913Z,101018.22
2022-09-01T21:49:54.004Z,101021.25
2022-09-01T21:52:23.363Z,101013.88
2022-09-01T21:54:51.531Z,101019.72
2022-09-01T21:57:20.898Z,101021.06
2022-09-01T21:59:48.861Z,101017.19
2022-09-01T22:02:17.512Z,101019.13
2022-09-01T22:04:45.768Z,101020.75
2022-09-01T22:07:18.620Z,101018.78
2022-09-01T22:09:48.855Z,101016.59
2022-09-01T22:12:16.794Z,101017.91
2022-09-01T22:14:44.768Z,101022.69
2022-09-01T22:17:13.140Z,101019.28
2022-09-01T22:19:41.106Z,101022.09
2022-09-01T22:22:09.369Z,101022.22
2022-09-01T22:24:37.660Z,101018.03
2022-09-01T22:27:09.915Z,101019.13
2022-09-01T22:29:38.800Z,101021.94
2022-09-01T22:32:06.961Z,101015.94
2022-09-01T22:34:35.886Z,101015.34
2022-09-01T22:37:05.039Z,101015.34
2022-09-01T22:39:33.040Z,101010.94
2022-09-01T22:42:01.143Z,101012.06
2022-09-01T22:44:30.631Z,101016.06
2022-09-01T22:46:58.639Z,101019.00
2022-09-01T22:49:26.620Z,101011.19
2022-09-01T22:51:54.768Z,101010.56
2022-09-01T22:54:22.879Z,101008.84
2022-09-01T22:56:52.461Z,101014.22
2022-09-01T22:59:23.178Z,101015.06
2022-09-01T23:01:52.999Z,101012.63
2022-09-01T23:04:21.662Z,101014.59
2022-09-01T23:06:52.577Z,101011.41
2022-09-01T23:09:21.735Z,101006.28
2022-09-01T23:11:50.450Z,101014.56
2022-09-01T23:14:18.536Z,101016.63
2022-09-01T23:16:47.093Z,101015.03
2022-09-01T23:19:21.855Z,101011.38
2022-09-01T23:21:51.037Z,101008.56
2022-09-01T23:24:20.525Z,101011.88
2022-09-01T23:26:49.727Z,101006.28
2022-09-01T23:29:18.346Z,101007.00
2022-09-01T23:31:46.657Z,100999.81
2022-09-01T23:34:16.534Z,101007.63
2022-09-01T23:36:46.180Z,101003.34
2022-09-01T23:39:14.868Z,101008.72
2022-09-01T23:41:43.383Z,100997.16
2022-09-01T23:44:13.331Z,100993.75
2022-09-01T23:46:44.512Z,100992.03
2022-09-01T23:49:14.102Z,100995.56
2022-09-01T23:51:42.405Z,100990.47
2022-09-01T23:54:12.081Z,100994.19
2022-09-01T23:56:40.816Z,100987.38
2022-09-01T23:59:09.770Z,100990.41
